sensor_id;sensor_type;location;lat;lon;timestamp;P1;durP1;ratioP1;P2;durP2;ratioP2
4597;SDS011;62772;48.646;8.906;2024-01-27T00:01:34;10.97;;;5.30;;
4597;SDS011;62772;48.646;8.906;2024-01-27T00:06:34;9.80;;;5.30;;
4597;SDS011;62772;48.646;8.906;2024-01-27T00:11:35;9.20;;;5.10;;
4597;SDS011;62772;48.646;8.906;2024-01-27T00:16:35;9.57;;;4.60;;
4597;SDS011;62772;48.646;8.906;2024-01-27T00:21:36;8.43;;;5.43;;
4597;SDS011;62772;48.646;8.906;2024-01-27T00:26:36;19.30;;;6.57;;
4597;SDS011;62772;48.646;8.906;2024-01-27T00:31:40;14.63;;;5.37;;
4597;SDS011;62772;48.646;8.906;2024-01-27T00:36:40;13.20;;;6.30;;
4597;SDS011;62772;48.646;8.906;2024-01-27T00:41:42;13.50;;;7.63;;
4597;SDS011;62772;48.646;8.906;2024-01-27T00:46:43;11.70;;;6.47;;
4597;SDS011;62772;48.646;8.906;2024-01-27T00:51:43;7.23;;;3.80;;
4597;SDS011;62772;48.646;8.906;2024-01-27T00:56:44;14.23;;;5.30;;
4597;SDS011;62772;48.646;8.906;2024-01-27T01:01:44;5.40;;;3.53;;
4597;SDS011;62772;48.646;8.906;2024-01-27T01:06:45;6.00;;;3.07;;
4597;SDS011;62772;48.646;8.906;2024-01-27T01:11:45;7.37;;;3.40;;
4597;SDS011;62772;48.646;8.906;2024-01-27T01:16:46;4.50;;;3.03;;
4597;SDS011;62772;48.646;8.906;2024-01-27T01:21:46;6.90;;;3.20;;
4597;SDS011;62772;48.646;8.906;2024-01-27T01:26:47;5.43;;;3.10;;
4597;SDS011;62772;48.646;8.906;2024-01-27T01:31:47;5.97;;;3.40;;
4597;SDS011;62772;48.646;8.906;2024-01-27T01:36:48;4.53;;;2.90;;
4597;SDS011;62772;48.646;8.906;2024-01-27T01:41:48;5.70;;;3.00;;
4597;SDS011;62772;48.646;8.906;2024-01-27T01:46:49;6.60;;;3.37;;
4597;SDS011;62772;48.646;8.906;2024-01-27T01:51:49;6.60;;;2.97;;
4597;SDS011;62772;48.646;8.906;2024-01-27T01:56:50;6.73;;;3.60;;
4597;SDS011;62772;48.646;8.906;2024-01-27T02:01:51;8.27;;;3.83;;
4597;SDS011;62772;48.646;8.906;2024-01-27T02:06:51;9.80;;;5.07;;
4597;SDS011;62772;48.646;8.906;2024-01-27T02:11:52;6.90;;;3.60;;
4597;SDS011;62772;48.646;8.906;2024-01-27T02:16:53;5.20;;;3.10;;
4597;SDS011;62772;48.646;8.906;2024-01-27T02:21:54;8.80;;;4.07;;
4597;SDS011;62772;48.646;8.906;2024-01-27T02:26:54;7.83;;;3.73;;
4597;SDS011;62772;48.646;8.906;2024-01-27T02:31:55;5.97;;;3.17;;
4597;SDS011;62772;48.646;8.906;2024-01-27T02:36:56;5.70;;;3.50;;
4597;SDS011;62772;48.646;8.906;2024-01-27T02:41:56;4.30;;;3.03;;
4597;SDS011;62772;48.646;8.906;2024-01-27T02:46:56;5.90;;;3.80;;
4597;SDS011;62772;48.646;8.906;2024-01-27T02:51:57;6.60;;;3.30;;
4597;SDS011;62772;48.646;8.906;2024-01-27T02:56:57;7.00;;;3.60;;
4597;SDS011;62772;48.646;8.906;2024-01-27T03:01:58;6.47;;;3.20;;
4597;SDS011;62772;48.646;8.906;2024-01-27T03:06:58;4.50;;;3.50;;
4597;SDS011;62772;48.646;8.906;2024-01-27T03:11:59;5.93;;;3.27;;
4597;SDS011;62772;48.646;8.906;2024-01-27T03:16:59;3.80;;;2.97;;
4597;SDS011;62772;48.646;8.906;2024-01-27T03:22:00;9.57;;;3.30;;
4597;SDS011;62772;48.646;8.906;2024-01-27T03:27:00;6.37;;;2.97;;
4597;SDS011;62772;48.646;8.906;2024-01-27T03:32:01;5.30;;;2.90;;
4597;SDS011;62772;48.646;8.906;2024-01-27T03:37:01;6.37;;;3.10;;
4597;SDS011;62772;48.646;8.906;2024-01-27T03:42:01;5.40;;;3.00;;
4597;SDS011;62772;48.646;8.906;2024-01-27T03:47:02;5.50;;;3.10;;
4597;SDS011;62772;48.646;8.906;2024-01-27T03:52:03;5.17;;;3.00;;
4597;SDS011;62772;48.646;8.906;2024-01-27T03:57:04;6.30;;;3.20;;
4597;SDS011;62772;48.646;8.906;2024-01-27T04:02:04;4.37;;;3.30;;
4597;SDS011;62772;48.646;8.906;2024-01-27T04:07:05;10.33;;;4.20;;
4597;SDS011;62772;48.646;8.906;2024-01-27T04:12:06;4.80;;;3.60;;
4597;SDS011;62772;48.646;8.906;2024-01-27T04:17:06;8.60;;;3.20;;
4597;SDS011;62772;48.646;8.906;2024-01-27T04:22:07;6.10;;;3.70;;
4597;SDS011;62772;48.646;8.906;2024-01-27T04:27:07;11.87;;;4.10;;
4597;SDS011;62772;48.646;8.906;2024-01-27T04:32:08;7.57;;;4.27;;
4597;SDS011;62772;48.646;8.906;2024-01-27T04:37:08;8.73;;;4.57;;
4597;SDS011;62772;48.646;8.906;2024-01-27T04:42:08;8.50;;;4.87;;
4597;SDS011;62772;48.646;8.906;2024-01-27T04:47:09;12.17;;;4.80;;
4597;SDS011;62772;48.646;8.906;2024-01-27T04:52:09;8.60;;;4.30;;
4597;SDS011;62772;48.646;8.906;2024-01-27T04:57:10;7.53;;;4.63;;
4597;SDS011;62772;48.646;8.906;2024-01-27T05:02:11;8.70;;;4.20;;
4597;SDS011;62772;48.646;8.906;2024-01-27T05:07:12;7.87;;;4.30;;
4597;SDS011;62772;48.646;8.906;2024-01-27T05:12:12;7.40;;;4.03;;
4597;SDS011;62772;48.646;8.906;2024-01-27T05:17:13;6.53;;;3.87;;
4597;SDS011;62772;48.646;8.906;2024-01-27T05:22:13;6.50;;;4.30;;
4597;SDS011;62772;48.646;8.906;2024-01-27T05:27:14;7.17;;;4.27;;
4597;SDS011;62772;48.646;8.906;2024-01-27T05:32:14;9.17;;;4.10;;
4597;SDS011;62772;48.646;8.906;2024-01-27T05:37:14;5.70;;;4.00;;
4597;SDS011;62772;48.646;8.906;2024-01-27T05:42:15;7.70;;;4.53;;
4597;SDS011;62772;48.646;8.906;2024-01-27T05:47:15;6.77;;;3.90;;
4597;SDS011;62772;48.646;8.906;2024-01-27T05:52:16;7.63;;;3.90;;
4597;SDS011;62772;48.646;8.906;2024-01-27T05:57:16;7.63;;;3.73;;
4597;SDS011;62772;48.646;8.906;2024-01-27T06:02:16;6.00;;;4.27;;
4597;SDS011;62772;48.646;8.906;2024-01-27T06:07:18;8.23;;;4.23;;
4597;SDS011;62772;48.646;8.906;2024-01-27T06:12:19;8.73;;;3.83;;
4597;SDS011;62772;48.646;8.906;2024-01-27T06:17:20;6.73;;;3.80;;
4597;SDS011;62772;48.646;8.906;2024-01-27T06:22:20;10.97;;;4.47;;
4597;SDS011;62772;48.646;8.906;2024-01-27T06:27:21;5.90;;;3.80;;
4597;SDS011;62772;48.646;8.906;2024-01-27T06:32:21;10.77;;;4.30;;
4597;SDS011;62772;48.646;8.906;2024-01-27T06:37:22;7.63;;;4.20;;
4597;SDS011;62772;48.646;8.906;2024-01-27T06:42:22;7.07;;;3.90;;
4597;SDS011;62772;48.646;8.906;2024-01-27T06:47:23;7.10;;;4.20;;
4597;SDS011;62772;48.646;8.906;2024-01-27T06:52:23;7.00;;;4.33;;
4597;SDS011;62772;48.646;8.906;2024-01-27T06:57:24;7.50;;;4.00;;
4597;SDS011;62772;48.646;8.906;2024-01-27T07:02:25;7.03;;;4.00;;
4597;SDS011;62772;48.646;8.906;2024-01-27T07:07:28;11.20;;;5.17;;
4597;SDS011;62772;48.646;8.906;2024-01-27T07:12:29;8.73;;;5.00;;
4597;SDS011;62772;48.646;8.906;2024-01-27T07:17:29;9.00;;;5.27;;
4597;SDS011;62772;48.646;8.906;2024-01-27T07:22:30;9.43;;;4.97;;
4597;SDS011;62772;48.646;8.906;2024-01-27T07:27:30;11.97;;;6.50;;
4597;SDS011;62772;48.646;8.906;2024-01-27T07:32:30;12.93;;;7.80;;
4597;SDS011;62772;48.646;8.906;2024-01-27T07:37:31;17.60;;;8.00;;
4597;SDS011;62772;48.646;8.906;2024-01-27T07:42:31;17.50;;;7.87;;
4597;SDS011;62772;48.646;8.906;2024-01-27T07:47:32;13.00;;;7.33;;
4597;SDS011;62772;48.646;8.906;2024-01-27T07:52:32;13.00;;;6.27;;
4597;SDS011;62772;48.646;8.906;2024-01-27T07:57:33;10.80;;;5.93;;
4597;SDS011;62772;48.646;8.906;2024-01-27T08:02:33;18.80;;;7.90;;
4597;SDS011;62772;48.646;8.906;2024-01-27T08:07:34;13.83;;;8.03;;
4597;SDS011;62772;48.646;8.906;2024-01-27T08:12:34;20.47;;;6.60;;
4597;SDS011;62772;48.646;8.906;2024-01-27T08:17:34;16.43;;;8.70;;
4597;SDS011;62772;48.646;8.906;2024-01-27T08:22:36;17.87;;;7.50;;
4597;SDS011;62772;48.646;8.906;2024-01-27T08:27:36;17.90;;;9.10;;
4597;SDS011;62772;48.646;8.906;2024-01-27T08:32:37;21.93;;;10.80;;
4597;SDS011;62772;48.646;8.906;2024-01-27T08:37:37;26.00;;;13.47;;
4597;SDS011;62772;48.646;8.906;2024-01-27T08:42:39;25.40;;;12.87;;
4597;SDS011;62772;48.646;8.906;2024-01-27T08:47:40;20.80;;;10.50;;
4597;SDS011;62772;48.646;8.906;2024-01-27T08:52:40;56.07;;;10.83;;
4597;SDS011;62772;48.646;8.906;2024-01-27T08:57:40;22.20;;;11.80;;
4597;SDS011;62772;48.646;8.906;2024-01-27T09:02:41;21.87;;;11.00;;
4597;SDS011;62772;48.646;8.906;2024-01-27T09:07:45;20.50;;;11.30;;
4597;SDS011;62772;48.646;8.906;2024-01-27T09:12:46;17.67;;;10.10;;
4597;SDS011;62772;48.646;8.906;2024-01-27T09:17:47;22.03;;;11.30;;
4597;SDS011;62772;48.646;8.906;2024-01-27T09:22:48;20.03;;;10.43;;
4597;SDS011;62772;48.646;8.906;2024-01-27T09:27:52;18.43;;;10.30;;
4597;SDS011;62772;48.646;8.906;2024-01-27T09:32:53;23.60;;;12.03;;
4597;SDS011;62772;48.646;8.906;2024-01-27T09:37:54;20.97;;;11.97;;
4597;SDS011;62772;48.646;8.906;2024-01-27T09:42:54;23.50;;;13.20;;
4597;SDS011;62772;48.646;8.906;2024-01-27T09:47:59;28.20;;;14.50;;
4597;SDS011;62772;48.646;8.906;2024-01-27T09:53:01;30.53;;;14.80;;
4597;SDS011;62772;48.646;8.906;2024-01-27T09:58:01;43.67;;;16.80;;
4597;SDS011;62772;48.646;8.906;2024-01-27T10:03:03;33.07;;;14.73;;
4597;SDS011;62772;48.646;8.906;2024-01-27T10:08:06;31.97;;;15.30;;
4597;SDS011;62772;48.646;8.906;2024-01-27T10:13:08;30.87;;;15.20;;
4597;SDS011;62772;48.646;8.906;2024-01-27T10:18:11;32.67;;;15.43;;
4597;SDS011;62772;48.646;8.906;2024-01-27T10:23:13;30.27;;;17.30;;
4597;SDS011;62772;48.646;8.906;2024-01-27T10:28:13;32.40;;;16.60;;
4597;SDS011;62772;48.646;8.906;2024-01-27T10:33:14;29.40;;;14.43;;
4597;SDS011;62772;48.646;8.906;2024-01-27T10:38:15;32.63;;;14.60;;
4597;SDS011;62772;48.646;8.906;2024-01-27T10:43:15;29.13;;;12.00;;
4597;SDS011;62772;48.646;8.906;2024-01-27T10:48:18;24.30;;;11.77;;
4597;SDS011;62772;48.646;8.906;2024-01-27T10:53:22;25.17;;;11.90;;
4597;SDS011;62772;48.646;8.906;2024-01-27T10:58:30;19.40;;;10.47;;
4597;SDS011;62772;48.646;8.906;2024-01-27T11:03:31;32.23;;;11.23;;
4597;SDS011;62772;48.646;8.906;2024-01-27T11:08:33;31.07;;;12.17;;
4597;SDS011;62772;48.646;8.906;2024-01-27T11:13:34;24.93;;;12.23;;
4597;SDS011;62772;48.646;8.906;2024-01-27T11:18:36;23.03;;;11.67;;
4597;SDS011;62772;48.646;8.906;2024-01-27T11:23:37;19.20;;;10.47;;
4597;SDS011;62772;48.646;8.906;2024-01-27T11:28:37;19.77;;;9.93;;
4597;SDS011;62772;48.646;8.906;2024-01-27T11:33:41;20.77;;;10.27;;
4597;SDS011;62772;48.646;8.906;2024-01-27T11:38:45;21.07;;;9.30;;
4597;SDS011;62772;48.646;8.906;2024-01-27T11:43:51;20.47;;;10.80;;
4597;SDS011;62772;48.646;8.906;2024-01-27T11:48:52;24.97;;;10.90;;
4597;SDS011;62772;48.646;8.906;2024-01-27T11:53:53;20.73;;;12.33;;
4597;SDS011;62772;48.646;8.906;2024-01-27T11:58:53;21.23;;;9.93;;
4597;SDS011;62772;48.646;8.906;2024-01-27T12:03:54;21.23;;;11.80;;
4597;SDS011;62772;48.646;8.906;2024-01-27T12:08:55;18.03;;;9.33;;
4597;SDS011;62772;48.646;8.906;2024-01-27T12:13:57;22.83;;;9.33;;
4597;SDS011;62772;48.646;8.906;2024-01-27T12:18:58;22.40;;;9.63;;
4597;SDS011;62772;48.646;8.906;2024-01-27T12:23:58;18.03;;;7.87;;
4597;SDS011;62772;48.646;8.906;2024-01-27T12:28:59;15.47;;;7.90;;
4597;SDS011;62772;48.646;8.906;2024-01-27T12:33:59;15.30;;;6.97;;
4597;SDS011;62772;48.646;8.906;2024-01-27T12:39:01;14.63;;;7.90;;
4597;SDS011;62772;48.646;8.906;2024-01-27T12:44:05;16.03;;;7.43;;
4597;SDS011;62772;48.646;8.906;2024-01-27T12:49:06;18.07;;;8.13;;
4597;SDS011;62772;48.646;8.906;2024-01-27T12:54:08;14.33;;;7.37;;
4597;SDS011;62772;48.646;8.906;2024-01-27T12:59:09;13.77;;;8.10;;
4597;SDS011;62772;48.646;8.906;2024-01-27T13:04:09;22.63;;;11.77;;
4597;SDS011;62772;48.646;8.906;2024-01-27T13:09:10;17.63;;;8.07;;
4597;SDS011;62772;48.646;8.906;2024-01-27T13:14:14;14.20;;;6.00;;
4597;SDS011;62772;48.646;8.906;2024-01-27T13:19:16;12.60;;;6.37;;
4597;SDS011;62772;48.646;8.906;2024-01-27T13:24:16;9.57;;;5.70;;
4597;SDS011;62772;48.646;8.906;2024-01-27T13:29:17;13.10;;;5.13;;
4597;SDS011;62772;48.646;8.906;2024-01-27T13:34:17;11.50;;;5.60;;
4597;SDS011;62772;48.646;8.906;2024-01-27T13:39:18;14.40;;;5.90;;
4597;SDS011;62772;48.646;8.906;2024-01-27T13:44:19;14.03;;;5.67;;
4597;SDS011;62772;48.646;8.906;2024-01-27T13:49:19;13.70;;;5.00;;
4597;SDS011;62772;48.646;8.906;2024-01-27T13:54:20;11.00;;;5.50;;
4597;SDS011;62772;48.646;8.906;2024-01-27T13:59:20;7.47;;;4.90;;
4597;SDS011;62772;48.646;8.906;2024-01-27T14:04:21;9.90;;;4.90;;
4597;SDS011;62772;48.646;8.906;2024-01-27T14:09:22;18.23;;;5.10;;
4597;SDS011;62772;48.646;8.906;2024-01-27T14:14:24;8.13;;;4.20;;
4597;SDS011;62772;48.646;8.906;2024-01-27T14:19:24;8.43;;;3.70;;
4597;SDS011;62772;48.646;8.906;2024-01-27T14:24:25;9.63;;;3.47;;
4597;SDS011;62772;48.646;8.906;2024-01-27T14:29:26;8.17;;;3.73;;
4597;SDS011;62772;48.646;8.906;2024-01-27T14:34:26;6.93;;;2.77;;
4597;SDS011;62772;48.646;8.906;2024-01-27T14:39:27;4.83;;;2.60;;
4597;SDS011;62772;48.646;8.906;2024-01-27T14:44:27;4.37;;;2.57;;
4597;SDS011;62772;48.646;8.906;2024-01-27T14:49:28;7.13;;;3.13;;
4597;SDS011;62772;48.646;8.906;2024-01-27T14:54:28;4.60;;;2.40;;
4597;SDS011;62772;48.646;8.906;2024-01-27T14:59:29;7.17;;;3.00;;
4597;SDS011;62772;48.646;8.906;2024-01-27T15:04:30;4.40;;;2.70;;
4597;SDS011;62772;48.646;8.906;2024-01-27T15:09:30;7.10;;;3.23;;
4597;SDS011;62772;48.646;8.906;2024-01-27T15:14:31;8.10;;;4.30;;
4597;SDS011;62772;48.646;8.906;2024-01-27T15:19:32;10.63;;;4.80;;
4597;SDS011;62772;48.646;8.906;2024-01-27T15:24:32;10.63;;;4.67;;
4597;SDS011;62772;48.646;8.906;2024-01-27T15:29:36;9.60;;;4.07;;
4597;SDS011;62772;48.646;8.906;2024-01-27T15:34:37;7.90;;;4.53;;
4597;SDS011;62772;48.646;8.906;2024-01-27T15:39:37;8.20;;;4.73;;
4597;SDS011;62772;48.646;8.906;2024-01-27T15:44:38;18.60;;;8.60;;
4597;SDS011;62772;48.646;8.906;2024-01-27T15:49:38;13.77;;;5.40;;
4597;SDS011;62772;48.646;8.906;2024-01-27T15:54:40;12.90;;;6.17;;
4597;SDS011;62772;48.646;8.906;2024-01-27T15:59:43;9.17;;;5.07;;
4597;SDS011;62772;48.646;8.906;2024-01-27T16:04:44;7.93;;;5.00;;
4597;SDS011;62772;48.646;8.906;2024-01-27T16:09:45;13.60;;;4.47;;
4597;SDS011;62772;48.646;8.906;2024-01-27T16:14:46;7.70;;;4.40;;
4597;SDS011;62772;48.646;8.906;2024-01-27T16:19:47;9.90;;;5.10;;
4597;SDS011;62772;48.646;8.906;2024-01-27T16:24:47;20.27;;;6.10;;
4597;SDS011;62772;48.646;8.906;2024-01-27T16:29:49;17.93;;;6.17;;
4597;SDS011;62772;48.646;8.906;2024-01-27T16:34:58;12.23;;;6.67;;
4597;SDS011;62772;48.646;8.906;2024-01-27T16:39:58;16.40;;;7.50;;
4597;SDS011;62772;48.646;8.906;2024-01-27T16:44:59;22.90;;;9.70;;
4597;SDS011;62772;48.646;8.906;2024-01-27T16:50:00;43.40;;;16.47;;
4597;SDS011;62772;48.646;8.906;2024-01-27T16:55:03;27.93;;;12.30;;
4597;SDS011;62772;48.646;8.906;2024-01-27T17:00:04;28.80;;;11.17;;
4597;SDS011;62772;48.646;8.906;2024-01-27T17:05:06;35.97;;;15.20;;
4597;SDS011;62772;48.646;8.906;2024-01-27T17:10:06;25.10;;;11.80;;
4597;SDS011;62772;48.646;8.906;2024-01-27T17:15:07;21.90;;;9.50;;
4597;SDS011;62772;48.646;8.906;2024-01-27T17:20:15;29.18;;;11.60;;
4597;SDS011;62772;48.646;8.906;2024-01-27T17:25:18;31.43;;;14.83;;
4597;SDS011;62772;48.646;8.906;2024-01-27T17:30:18;36.10;;;13.83;;
4597;SDS011;62772;48.646;8.906;2024-01-27T17:35:19;28.73;;;13.00;;
4597;SDS011;62772;48.646;8.906;2024-01-27T17:40:21;27.17;;;13.10;;
4597;SDS011;62772;48.646;8.906;2024-01-27T17:45:24;43.20;;;16.30;;
4597;SDS011;62772;48.646;8.906;2024-01-27T17:50:24;36.00;;;15.10;;
4597;SDS011;62772;48.646;8.906;2024-01-27T17:55:25;22.40;;;11.63;;
4597;SDS011;62772;48.646;8.906;2024-01-27T18:00:26;17.00;;;10.13;;
4597;SDS011;62772;48.646;8.906;2024-01-27T18:05:26;22.20;;;10.33;;
4597;SDS011;62772;48.646;8.906;2024-01-27T18:10:27;30.70;;;13.60;;
4597;SDS011;62772;48.646;8.906;2024-01-27T18:15:27;24.93;;;14.20;;
4597;SDS011;62772;48.646;8.906;2024-01-27T18:20:27;42.03;;;16.37;;
4597;SDS011;62772;48.646;8.906;2024-01-27T18:25:28;39.43;;;16.00;;
4597;SDS011;62772;48.646;8.906;2024-01-27T18:30:29;34.87;;;16.70;;
4597;SDS011;62772;48.646;8.906;2024-01-27T18:35:30;26.20;;;13.33;;
4597;SDS011;62772;48.646;8.906;2024-01-27T18:40:30;19.47;;;10.87;;
4597;SDS011;62772;48.646;8.906;2024-01-27T18:45:31;38.63;;;16.70;;
4597;SDS011;62772;48.646;8.906;2024-01-27T18:50:32;23.37;;;11.53;;
4597;SDS011;62772;48.646;8.906;2024-01-27T18:55:34;25.83;;;10.67;;
4597;SDS011;62772;48.646;8.906;2024-01-27T19:00:41;28.20;;;10.90;;
4597;SDS011;62772;48.646;8.906;2024-01-27T19:05:41;21.13;;;9.73;;
4597;SDS011;62772;48.646;8.906;2024-01-27T19:10:42;24.50;;;12.03;;
4597;SDS011;62772;48.646;8.906;2024-01-27T19:15:45;20.70;;;9.57;;
4597;SDS011;62772;48.646;8.906;2024-01-27T19:20:46;18.50;;;8.90;;
4597;SDS011;62772;48.646;8.906;2024-01-27T19:25:47;17.97;;;10.10;;
4597;SDS011;62772;48.646;8.906;2024-01-27T19:30:47;35.47;;;14.23;;
4597;SDS011;62772;48.646;8.906;2024-01-27T19:35:48;26.83;;;14.33;;
4597;SDS011;62772;48.646;8.906;2024-01-27T19:40:48;35.53;;;18.10;;
4597;SDS011;62772;48.646;8.906;2024-01-27T19:45:50;37.63;;;18.47;;
4597;SDS011;62772;48.646;8.906;2024-01-27T19:50:50;38.43;;;20.57;;
4597;SDS011;62772;48.646;8.906;2024-01-27T19:55:50;51.60;;;22.03;;
4597;SDS011;62772;48.646;8.906;2024-01-27T20:00:51;35.23;;;20.20;;
4597;SDS011;62772;48.646;8.906;2024-01-27T20:05:52;37.37;;;19.13;;
4597;SDS011;62772;48.646;8.906;2024-01-27T20:10:52;43.73;;;20.20;;
4597;SDS011;62772;48.646;8.906;2024-01-27T20:15:53;40.23;;;18.57;;
4597;SDS011;62772;48.646;8.906;2024-01-27T20:20:54;28.90;;;13.97;;
4597;SDS011;62772;48.646;8.906;2024-01-27T20:25:55;28.77;;;14.40;;
4597;SDS011;62772;48.646;8.906;2024-01-27T20:30:56;29.20;;;13.00;;
4597;SDS011;62772;48.646;8.906;2024-01-27T20:35:57;30.33;;;13.80;;
4597;SDS011;62772;48.646;8.906;2024-01-27T20:40:57;28.43;;;13.47;;
4597;SDS011;62772;48.646;8.906;2024-01-27T20:45:58;25.50;;;10.30;;
4597;SDS011;62772;48.646;8.906;2024-01-27T20:51:02;15.13;;;9.37;;
4597;SDS011;62772;48.646;8.906;2024-01-27T20:56:02;19.33;;;8.60;;
4597;SDS011;62772;48.646;8.906;2024-01-27T21:01:04;17.03;;;9.20;;
4597;SDS011;62772;48.646;8.906;2024-01-27T21:06:04;25.37;;;11.70;;
4597;SDS011;62772;48.646;8.906;2024-01-27T21:11:05;29.27;;;13.43;;
4597;SDS011;62772;48.646;8.906;2024-01-27T21:16:09;28.27;;;13.77;;
4597;SDS011;62772;48.646;8.906;2024-01-27T21:21:10;21.63;;;11.67;;
4597;SDS011;62772;48.646;8.906;2024-01-27T21:26:11;25.47;;;13.80;;
4597;SDS011;62772;48.646;8.906;2024-01-27T21:31:12;29.47;;;15.87;;
4597;SDS011;62772;48.646;8.906;2024-01-27T21:36:13;34.70;;;16.03;;
4597;SDS011;62772;48.646;8.906;2024-01-27T21:41:13;23.17;;;11.43;;
4597;SDS011;62772;48.646;8.906;2024-01-27T21:46:14;27.27;;;14.17;;
4597;SDS011;62772;48.646;8.906;2024-01-27T21:51:14;29.07;;;13.80;;
4597;SDS011;62772;48.646;8.906;2024-01-27T21:56:16;34.17;;;16.20;;
4597;SDS011;62772;48.646;8.906;2024-01-27T22:01:17;31.30;;;15.53;;
4597;SDS011;62772;48.646;8.906;2024-01-27T22:06:17;37.63;;;18.50;;
4597;SDS011;62772;48.646;8.906;2024-01-27T22:11:17;39.00;;;18.40;;
4597;SDS011;62772;48.646;8.906;2024-01-27T22:16:18;33.60;;;17.97;;
4597;SDS011;62772;48.646;8.906;2024-01-27T22:21:18;39.17;;;17.80;;
4597;SDS011;62772;48.646;8.906;2024-01-27T22:26:19;37.10;;;18.80;;
4597;SDS011;62772;48.646;8.906;2024-01-27T22:31:20;37.10;;;20.10;;
4597;SDS011;62772;48.646;8.906;2024-01-27T22:36:20;36.50;;;19.23;;
4597;SDS011;62772;48.646;8.906;2024-01-27T22:41:22;34.43;;;18.97;;
4597;SDS011;62772;48.646;8.906;2024-01-27T22:46:23;41.13;;;19.70;;
4597;SDS011;62772;48.646;8.906;2024-01-27T22:51:24;38.40;;;19.87;;
4597;SDS011;62772;48.646;8.906;2024-01-27T22:56:25;41.47;;;20.57;;
4597;SDS011;62772;48.646;8.906;2024-01-27T23:01:25;41.10;;;21.07;;
4597;SDS011;62772;48.646;8.906;2024-01-27T23:06:26;46.33;;;22.30;;
4597;SDS011;62772;48.646;8.906;2024-01-27T23:11:26;49.10;;;20.93;;
4597;SDS011;62772;48.646;8.906;2024-01-27T23:16:28;36.40;;;18.80;;
4597;SDS011;62772;48.646;8.906;2024-01-27T23:21:29;40.43;;;19.33;;
4597;SDS011;62772;48.646;8.906;2024-01-27T23:26:29;36.93;;;19.87;;
4597;SDS011;62772;48.646;8.906;2024-01-27T23:31:30;33.67;;;18.27;;
4597;SDS011;62772;48.646;8.906;2024-01-27T23:36:30;42.30;;;20.40;;
4597;SDS011;62772;48.646;8.906;2024-01-27T23:41:31;36.50;;;19.53;;
4597;SDS011;62772;48.646;8.906;2024-01-27T23:46:32;36.73;;;19.87;;
4597;SDS011;62772;48.646;8.906;2024-01-27T23:51:32;33.83;;;19.80;;
4597;SDS011;62772;48.646;8.906;2024-01-27T23:56:35;45.13;;;19.90;;
